createdAt,value
2023-10-30T00:03:17.971Z,93.40
2023-10-30T00:08:58.395Z,93.40
2023-10-30T00:14:38.567Z,93.40
2023-10-30T00:20:20.155Z,93.40
2023-10-30T00:26:00.300Z,93.40
2023-10-30T00:31:40.678Z,93.40
2023-10-30T00:37:22.336Z,93.40
2023-10-30T00:43:02.282Z,93.40
2023-10-30T00:48:42.269Z,93.40
2023-10-30T00:54:24.016Z,93.40
2023-10-30T01:00:05.386Z,93.40
2023-10-30T01:05:45.426Z,93.40
2023-10-30T01:11:27.557Z,93.40
2023-10-30T01:17:07.862Z,93.40
2023-10-30T01:22:47.975Z,93.40
2023-10-30T01:28:29.534Z,93.40
2023-10-30T01:34:09.778Z,93.40
2023-10-30T01:39:50.155Z,93.40
2023-10-30T01:45:31.615Z,93.40
2023-10-30T01:51:13.498Z,93.30
2023-10-30T01:56:53.780Z,93.30
2023-10-30T02:02:38.381Z,93.30
2023-10-30T02:08:19.326Z,93.30
2023-10-30T02:13:59.394Z,93.30
2023-10-30T02:19:41.158Z,93.30
2023-10-30T02:25:23.517Z,93.30
2023-10-30T02:31:03.745Z,93.30
2023-10-30T02:36:44.127Z,93.30
2023-10-30T02:42:25.963Z,93.30
2023-10-30T02:48:06.599Z,93.30
2023-10-30T02:53:46.889Z,93.30
2023-10-30T02:59:28.355Z,93.40
2023-10-30T03:05:09.166Z,93.40
2023-10-30T03:10:49.643Z,93.40
2023-10-30T03:16:31.135Z,93.50
2023-10-30T03:22:11.374Z,93.50
2023-10-30T03:27:51.551Z,93.50
2023-10-30T03:33:33.173Z,93.50
2023-10-30T03:39:13.439Z,93.50
2023-10-30T03:44:53.730Z,93.50
2023-10-30T03:50:35.556Z,93.50
2023-10-30T03:56:15.801Z,93.40
2023-10-30T04:01:55.950Z,93.40
2023-10-30T04:07:37.551Z,93.30
2023-10-30T04:13:17.481Z,93.40
2023-10-30T04:18:57.975Z,93.40
2023-10-30T04:24:39.941Z,93.90
2023-10-30T04:30:20.314Z,93.50
2023-10-30T04:36:02.914Z,93.40
2023-10-30T04:41:44.312Z,93.40
2023-10-30T04:47:24.498Z,93.40
2023-10-30T04:53:04.616Z,93.40
2023-10-30T04:58:46.439Z,93.40
2023-10-30T05:04:26.436Z,93.40
2023-10-30T05:10:07.478Z,93.40
2023-10-30T05:15:49.215Z,93.40
2023-10-30T05:21:29.506Z,93.50
2023-10-30T05:27:09.889Z,93.60
2023-10-30T05:32:51.555Z,93.60
2023-10-30T05:38:31.519Z,93.60
2023-10-30T05:44:11.719Z,93.60
2023-10-30T05:49:53.612Z,93.60
2023-10-30T05:55:33.702Z,93.60
2023-10-30T06:01:13.846Z,93.70
2023-10-30T06:06:55.732Z,93.70
2023-10-30T06:12:36.180Z,93.70
2023-10-30T06:18:16.504Z,93.70
2023-10-30T06:23:58.373Z,93.80
2023-10-30T06:29:38.854Z,93.80
2023-10-30T06:35:18.705Z,93.80
2023-10-30T06:41:00.370Z,93.90
2023-10-30T06:46:40.442Z,93.90
2023-10-30T06:52:22.724Z,93.90
2023-10-30T06:58:04.007Z,93.90
2023-10-30T07:03:44.136Z,94.00
2023-10-30T07:09:25.621Z,94.00
2023-10-30T07:15:13.053Z,94.50
2023-10-30T07:20:53.651Z,95.00
2023-10-30T07:26:33.919Z,94.90
2023-10-30T07:32:15.696Z,94.40
2023-10-30T07:37:57.702Z,94.00
2023-10-30T07:43:37.674Z,93.50
2023-10-30T07:49:19.469Z,93.20
2023-10-30T07:54:59.870Z,91.40
2023-10-30T08:00:54.985Z,90.70
2023-10-30T08:06:39.760Z,90.90
2023-10-30T08:12:20.076Z,90.20
2023-10-30T08:18:00.202Z,89.70
2023-10-30T08:23:41.696Z,88.20
2023-10-30T08:29:21.686Z,86.80
2023-10-30T08:35:02.298Z,86.00
2023-10-30T08:40:44.880Z,86.80
2023-10-30T08:46:26.002Z,84.40
2023-10-30T08:52:07.120Z,84.40
2023-10-30T08:57:49.435Z,83.50
2023-10-30T09:03:30.596Z,83.70
2023-10-30T09:09:10.832Z,83.50
2023-10-30T09:14:52.526Z,83.00
2023-10-30T09:20:32.593Z,83.10
2023-10-30T09:26:12.782Z,82.70
2023-10-30T09:31:54.492Z,83.30
2023-10-30T09:37:34.897Z,81.10
2023-10-30T09:43:17.059Z,81.60
2023-10-30T09:49:00.539Z,80.50
2023-10-30T09:54:42.210Z,80.40
2023-10-30T10:00:24.250Z,79.90
2023-10-30T10:06:07.603Z,79.40
2023-10-30T10:11:47.832Z,80.50
2023-10-30T10:17:30.764Z,79.90
2023-10-30T10:23:20.822Z,80.30
2023-10-30T10:29:03.236Z,78.40
2023-10-30T10:34:44.267Z,77.50
2023-10-30T10:40:26.739Z,78.30
2023-10-30T10:46:07.369Z,78.90
2023-10-30T10:51:48.626Z,77.70
2023-10-30T10:57:40.758Z,77.50
2023-10-30T11:03:23.258Z,75.70
2023-10-30T11:09:09.904Z,76.70
2023-10-30T11:15:00.196Z,76.90
2023-10-30T11:20:42.202Z,78.90
2023-10-30T11:26:39.387Z,79.20
2023-10-30T11:32:20.992Z,79.60
2023-10-30T11:38:01.635Z,80.60
2023-10-30T11:43:43.465Z,80.60
2023-10-30T11:49:30.502Z,81.10
2023-10-30T11:55:12.697Z,80.20
2023-10-30T12:00:53.476Z,79.30
2023-10-30T12:06:34.917Z,80.60
2023-10-30T12:12:15.248Z,81.00
2023-10-30T12:17:56.552Z,82.00
2023-10-30T12:23:48.926Z,83.70
2023-10-30T12:29:29.161Z,81.70
2023-10-30T12:35:10.839Z,82.00
2023-10-30T12:40:52.191Z,81.70
2023-10-30T12:46:32.387Z,81.30
2023-10-30T12:52:12.591Z,80.60
2023-10-30T12:57:54.245Z,80.70
2023-10-30T13:03:34.625Z,79.60
2023-10-30T13:09:15.195Z,80.70
2023-10-30T13:14:57.134Z,81.80
2023-10-30T13:20:37.531Z,83.00
2023-10-30T13:26:17.902Z,83.20
2023-10-30T13:31:59.464Z,83.10
2023-10-30T13:37:39.313Z,82.50
2023-10-30T13:43:19.653Z,82.50
2023-10-30T13:49:01.482Z,83.40
2023-10-30T13:54:42.459Z,83.40
2023-10-30T14:00:22.905Z,84.50
2023-10-30T14:06:05.124Z,84.50
2023-10-30T14:11:45.414Z,84.60
2023-10-30T14:17:25.676Z,85.00
2023-10-30T14:23:07.543Z,85.20
2023-10-30T14:28:47.572Z,85.20
2023-10-30T14:34:27.724Z,85.40
2023-10-30T14:40:10.600Z,85.60
2023-10-30T14:45:51.150Z,86.00
2023-10-30T14:51:31.437Z,86.10
2023-10-30T14:57:13.064Z,86.30
2023-10-30T15:02:53.037Z,86.40
2023-10-30T15:08:33.440Z,86.70
2023-10-30T15:14:15.271Z,87.00
2023-10-30T15:19:55.588Z,87.20
2023-10-30T15:25:35.896Z,87.40
2023-10-30T15:31:22.843Z,87.40
2023-10-30T15:37:03.139Z,87.50
2023-10-30T15:42:43.592Z,87.70
2023-10-30T15:48:25.288Z,88.10
2023-10-30T15:59:51.043Z,88.60
2023-10-30T16:05:47.220Z,88.80
2023-10-30T16:11:33.777Z,89.10
2023-10-30T16:22:58.160Z,90.10
2023-10-30T16:28:38.476Z,89.70
2023-10-30T16:34:18.749Z,89.90
2023-10-30T16:40:00.099Z,90.00
2023-10-30T16:45:40.130Z,90.10
2023-10-30T16:51:20.422Z,90.20
2023-10-30T16:57:02.193Z,90.30
2023-10-30T17:02:42.135Z,90.30
2023-10-30T17:08:22.557Z,90.40
2023-10-30T17:14:04.068Z,90.50
2023-10-30T17:19:44.089Z,90.60
2023-10-30T17:25:24.689Z,90.70
2023-10-30T17:31:06.749Z,90.80
2023-10-30T17:36:47.109Z,90.80
2023-10-30T17:42:27.342Z,90.80
2023-10-30T17:48:09.118Z,90.70
2023-10-30T17:53:49.615Z,90.80
2023-10-30T17:59:30.258Z,90.80
2023-10-30T18:05:11.857Z,90.90
2023-10-30T18:10:51.798Z,91.00
2023-10-30T18:16:31.932Z,91.10
2023-10-30T18:22:14.578Z,91.20
2023-10-30T18:27:55.571Z,91.30
2023-10-30T18:33:35.914Z,91.30
2023-10-30T18:39:19.355Z,91.40
2023-10-30T18:45:00.260Z,91.60
2023-10-30T18:50:40.990Z,91.60
2023-10-30T18:56:22.717Z,91.60
2023-10-30T19:02:03.505Z,91.60
2023-10-30T19:07:44.495Z,91.70
2023-10-30T19:13:28.876Z,91.80
2023-10-30T19:19:09.751Z,91.90
2023-10-30T19:24:49.898Z,91.90
2023-10-30T19:30:32.839Z,91.90
2023-10-30T19:36:14.245Z,92.10
2023-10-30T19:41:54.615Z,92.10
2023-10-30T19:47:36.481Z,92.20
2023-10-30T19:53:17.405Z,92.40
2023-10-30T19:58:57.838Z,92.40
2023-10-30T20:04:41.387Z,92.50
2023-10-30T20:10:34.280Z,92.60
2023-10-30T20:16:18.666Z,92.70
2023-10-30T20:22:00.618Z,92.80
2023-10-30T20:27:43.589Z,92.90
2023-10-30T20:33:24.105Z,92.90
2023-10-30T20:39:06.954Z,93.00
2023-10-30T20:44:52.738Z,93.10
2023-10-30T20:50:33.603Z,93.00
2023-10-30T20:56:15.165Z,93.00
2023-10-30T21:01:55.965Z,93.00
2023-10-30T21:07:36.736Z,92.90
2023-10-30T21:13:18.451Z,92.90
2023-10-30T21:18:58.737Z,92.90
2023-10-30T21:24:39.232Z,92.90
2023-10-30T21:30:21.326Z,92.90
2023-10-30T21:36:01.187Z,92.90
2023-10-30T21:41:41.429Z,92.90
2023-10-30T21:47:26.514Z,92.90
2023-10-30T21:53:08.354Z,92.90
2023-10-30T21:58:48.784Z,92.80
2023-10-30T22:04:30.575Z,92.70
2023-10-30T22:10:10.899Z,92.80
2023-10-30T22:15:51.142Z,92.80
2023-10-30T22:21:32.886Z,92.80
2023-10-30T22:27:13.187Z,92.80
2023-10-30T22:32:54.806Z,92.80
2023-10-30T22:38:36.813Z,92.80
2023-10-30T22:44:16.741Z,93.00
2023-10-30T22:49:57.124Z,93.10
2023-10-30T22:55:39.084Z,93.30
2023-10-30T23:01:19.219Z,93.40
2023-10-30T23:06:59.208Z,93.40
2023-10-30T23:12:40.676Z,93.30
2023-10-30T23:18:20.759Z,93.50
2023-10-30T23:24:01.250Z,93.40
2023-10-30T23:29:43.011Z,93.40
2023-10-30T23:35:23.289Z,93.50
2023-10-30T23:41:03.982Z,93.50
2023-10-30T23:46:45.465Z,93.50
2023-10-30T23:52:25.980Z,93.60
2023-10-30T23:58:06.146Z,93.60
